Aérodrome :
LOGIN :

S'inscrire | Disclaimer

   EN    FR    IT 

 










Légende :    VFR   VFR Marginal   IFR   IFR Intensif   IFR Très Intensif
Visi : 
Plafond : 
>= 8 km
>= 3000ft
5 à 8 km
1000 à 3000 ft
1500m à 5 km
500 à 1000 ft
800 à 1500m
200 à 500 ft
< 800m
< 200 ft
Symboles :   Orages  Brouillard  Fortes neiges  Fortes précipitations  Vent > 20 kt
SIGMETs :   Divers  Orages  Givrage  Turbulence  Onde Orograph.  Cendres Volcan.






- Altitude de l'aérodrome : 3100 ft
- Code IATA : NAV


LTAZ - Kapadokya

DERNIER METAR :
  • 191520Z 31003KT 9999 BKN035 BKN090 01/M09 Q1018 RMK RWY29 30004KT 270V330

METARs EXPIRÉS :
  • 191450Z 32006KT 300V360 9999 BKN035 BKN100 01/M09 Q1018 RMK RWY29 32005KT
  • 191420Z 30004KT 270V340 9999 BKN035 BKN100 01/M09 Q1017 RMK RWY29 30006KT
  • 191350Z 31006KT 9999 BKN035 BKN100 01/M09 Q1017
  • 191320Z 29005KT 250V330 9999 BKN035 BKN100 02/M09 Q1017 RMK RWY29 29006KT 250V320
  • 191250Z 31008KT 250V340 9999 BKN035 BKN100 02/M08 Q1017 RMK RWY29 24004KT 210V270

TAF TAF LTAZ
Valide du 19 à 12h jusqu'au 20 à 12h UTC


191040Z 1912/2012 VRB02KT 9999 BKN035
TEMPO 1913/1917 -SN BKN030 BKN080
BECMG 1917/1919 BKN025 BKN080
TEMPO 1922/2002 -SN
TEMPO 2002/2006 4000 -SN BR
TEMPO 2006/2010 4000 -SN BR



MET'MAP, la Météo Aéronautique d'un coup d'oeil ! - Copyright ORBIFLY Décembre 2007 - Disclaimer

ORBIFLY MET'MAP TEAM :

Programmation & Développement : Alexandra Zaïnal
Sur une idée originale de : Baudouin d'Aumeries
Assistance à la programmation : Marc-Olivier Méhu
Soutien technique & logistique : Manuel Goepfert

Contact : metmap@orbifly.com




SOURCES & CREDITS :

   NOAA